createdAt,value
2022-08-09T00:01:52.801Z,18.54
2022-08-09T00:05:03.208Z,18.49
2022-08-09T00:08:48.368Z,18.45
2022-08-09T00:12:02.926Z,18.40
2022-08-09T00:15:07.382Z,18.40
2022-08-09T00:18:17.349Z,18.36
2022-08-09T00:21:20.969Z,18.38
2022-08-09T00:24:27.436Z,18.31
2022-08-09T00:27:29.933Z,18.30
2022-08-09T00:30:38.641Z,18.28
2022-08-09T00:33:50.503Z,18.31
2022-08-09T00:36:53.674Z,18.27
2022-08-09T00:40:13.494Z,18.21
2022-08-09T00:44:11.924Z,18.24
2022-08-09T00:46:57.221Z,18.18
2022-08-09T00:50:04.653Z,18.18
2022-08-09T00:53:08.862Z,18.13
2022-08-09T00:56:14.279Z,18.12
2022-08-09T00:59:20.207Z,18.12
2022-08-09T01:02:50.710Z,18.08
2022-08-09T01:05:59.336Z,17.95
2022-08-09T01:09:19.912Z,17.97
2022-08-09T01:12:38.851Z,17.97
2022-08-09T01:15:52.166Z,17.94
2022-08-09T01:19:04.372Z,18.00
2022-08-09T01:22:43.234Z,17.96
2022-08-09T01:25:51.286Z,17.94
2022-08-09T01:28:56.559Z,17.96
2022-08-09T01:32:29.983Z,17.91
2022-08-09T01:35:38.375Z,17.96
2022-08-09T01:38:46.542Z,17.93
2022-08-09T01:41:53.530Z,17.90
2022-08-09T01:45:04.042Z,17.87
2022-08-09T01:48:09.232Z,17.89
2022-08-09T01:51:12.860Z,17.85
2022-08-09T01:54:32.761Z,17.85
2022-08-09T01:57:44.299Z,17.82
2022-08-09T02:00:50.638Z,17.73
2022-08-09T02:03:53.896Z,17.74
2022-08-09T02:07:15.524Z,17.73
2022-08-09T02:10:29.667Z,17.76
2022-08-09T02:13:37.270Z,17.78
2022-08-09T02:16:59.948Z,17.76
2022-08-09T02:20:07.262Z,17.74
2022-08-09T02:23:18.614Z,17.77
2022-08-09T02:26:25.228Z,17.76
2022-08-09T02:29:32.637Z,17.72
2022-08-09T02:32:37.493Z,17.71
2022-08-09T02:36:01.441Z,17.70
2022-08-09T02:39:07.610Z,17.70
2022-08-09T02:42:34.181Z,17.67
2022-08-09T02:45:41.865Z,17.66
2022-08-09T02:48:46.069Z,17.65
2022-08-09T02:51:56.521Z,17.61
2022-08-09T02:55:19.994Z,17.58
2022-08-09T02:58:36.945Z,17.58
2022-08-09T03:01:58.622Z,17.59
2022-08-09T03:05:03.674Z,17.45
2022-08-09T03:08:09.552Z,17.50
2022-08-09T03:11:30.153Z,17.51
2022-08-09T03:14:39.584Z,17.50
2022-08-09T03:17:43.984Z,17.46
2022-08-09T03:20:46.534Z,17.42
2022-08-09T03:24:04.799Z,17.43
2022-08-09T03:27:09.707Z,17.31
2022-08-09T03:30:14.190Z,17.33
2022-08-09T03:33:53.191Z,17.32
2022-08-09T03:36:58.527Z,17.33
2022-08-09T03:40:05.291Z,17.30
2022-08-09T03:43:07.659Z,17.27
2022-08-09T03:46:19.898Z,17.30
2022-08-09T03:49:29.956Z,17.29
2022-08-09T03:52:36.091Z,17.28
2022-08-09T03:55:40.823Z,17.34
2022-08-09T03:58:44.527Z,17.39
2022-08-09T04:01:50.123Z,17.41
2022-08-09T04:04:52.718Z,17.40
2022-08-09T04:07:57.341Z,17.43
2022-08-09T04:11:01.281Z,17.48
2022-08-09T04:14:54.056Z,17.45
2022-08-09T04:17:27.180Z,17.44
2022-08-09T04:20:32.712Z,17.48
2022-08-09T04:23:34.954Z,17.56
2022-08-09T04:26:38.163Z,17.54
2022-08-09T04:29:40.485Z,17.53
2022-08-09T04:32:52.718Z,17.63
2022-08-09T04:35:56.362Z,17.69
2022-08-09T04:39:01.112Z,17.75
2022-08-09T04:42:03.481Z,17.82
2022-08-09T04:45:06.519Z,17.88
2022-08-09T04:48:10.362Z,17.92
2022-08-09T04:51:13.161Z,17.99
2022-08-09T04:54:18.776Z,17.96
2022-08-09T04:57:24.124Z,18.01
2022-08-09T05:00:26.711Z,18.06
2022-08-09T05:03:43.278Z,18.16
2022-08-09T05:06:46.128Z,18.18
2022-08-09T05:09:53.020Z,18.23
2022-08-09T05:12:55.370Z,18.31
2022-08-09T05:15:57.770Z,18.28
2022-08-09T05:19:00.649Z,18.36
2022-08-09T05:22:05.072Z,18.43
2022-08-09T05:25:28.332Z,18.47
2022-08-09T05:28:35.015Z,18.50
2022-08-09T05:31:46.838Z,18.53
2022-08-09T05:34:53.104Z,18.58
2022-08-09T05:37:57.306Z,18.59
2022-08-09T05:41:01.112Z,18.66
2022-08-09T05:44:03.740Z,18.70
2022-08-09T05:47:07.812Z,18.72
2022-08-09T05:50:31.927Z,18.79
2022-08-09T05:53:35.343Z,18.83
2022-08-09T05:56:54.534Z,18.85
2022-08-09T05:59:57.721Z,18.86
2022-08-09T06:03:01.724Z,18.89
2022-08-09T06:06:06.199Z,18.92
2022-08-09T06:09:23.146Z,19.04
2022-08-09T06:12:31.503Z,19.11
2022-08-09T06:15:33.817Z,19.17
2022-08-09T06:18:36.512Z,19.28
2022-08-09T06:21:50.260Z,19.34
2022-08-09T06:24:52.976Z,19.41
2022-08-09T06:27:55.292Z,19.46
2022-08-09T06:30:57.611Z,19.59
2022-08-09T06:33:59.793Z,19.63
2022-08-09T06:37:02.208Z,19.74
2022-08-09T06:40:21.563Z,19.78
2022-08-09T06:43:26.923Z,19.87
2022-08-09T06:46:40.248Z,19.76
2022-08-09T06:50:11.934Z,19.77
2022-08-09T06:53:05.632Z,19.77
2022-08-09T06:56:09.119Z,19.85
2022-08-09T07:00:49.343Z,19.90
2022-08-09T07:02:34.438Z,20.08
2022-08-09T07:05:58.069Z,20.15
2022-08-09T07:08:59.174Z,20.19
2022-08-09T07:12:01.388Z,20.27
2022-08-09T07:16:38.603Z,20.33
2022-08-09T07:18:27.442Z,20.42
2022-08-09T07:21:34.255Z,20.48
2022-08-09T07:24:40.771Z,20.58
2022-08-09T07:27:53.493Z,20.61
2022-08-09T07:30:57.589Z,20.62
2022-08-09T07:33:59.975Z,20.72
2022-08-09T07:37:02.528Z,20.78
2022-08-09T07:40:05.737Z,20.86
2022-08-09T07:43:16.652Z,20.91
2022-08-09T07:46:19.682Z,20.87
2022-08-09T07:49:21.950Z,20.96
2022-08-09T07:52:24.262Z,20.98
2022-08-09T07:55:28.663Z,21.03
2022-08-09T07:58:31.191Z,21.15
2022-08-09T08:01:34.644Z,21.28
2022-08-09T08:04:37.893Z,21.29
2022-08-09T08:08:43.864Z,21.30
2022-08-09T08:12:10.512Z,21.38
2022-08-09T08:14:26.457Z,21.55
2022-08-09T08:17:52.276Z,21.72
2022-08-09T08:20:51.438Z,21.78
2022-08-09T08:23:55.985Z,21.99
2022-08-09T08:26:58.586Z,22.09
2022-08-09T08:30:04.280Z,22.33
2022-08-09T08:33:06.599Z,22.68
2022-08-09T08:36:14.332Z,22.86
2022-08-09T08:39:40.026Z,22.85
2022-08-09T08:42:47.205Z,23.30
2022-08-09T08:46:09.802Z,23.95
2022-08-09T08:49:19.298Z,24.39
2022-08-09T08:55:48.576Z,24.98
2022-08-09T08:58:51.549Z,25.37
2022-08-09T09:01:57.380Z,25.72
2022-08-09T09:05:06.079Z,25.81
2022-08-09T09:08:29.433Z,26.01
2022-08-09T09:11:38.497Z,26.18
2022-08-09T09:14:43.356Z,26.28
2022-08-09T09:17:49.598Z,26.54
2022-08-09T09:20:55.544Z,26.50
2022-08-09T09:24:10.544Z,26.54
2022-08-09T09:28:05.297Z,26.42
2022-08-09T09:30:57.286Z,26.87
2022-08-09T09:34:18.750Z,27.15
2022-08-09T09:37:32.279Z,27.39
2022-08-09T09:40:46.196Z,27.40
2022-08-09T09:44:11.869Z,27.15
2022-08-09T09:47:16.740Z,27.11
2022-08-09T09:50:49.704Z,26.90
2022-08-09T09:54:20.412Z,26.82
2022-08-09T09:58:02.312Z,26.83
2022-08-09T10:00:59.071Z,26.80
2022-08-09T10:04:08.895Z,26.94
2022-08-09T10:07:26.705Z,27.03
2022-08-09T10:10:32.136Z,26.73
2022-08-09T10:13:45.212Z,26.63
2022-08-09T10:16:57.835Z,26.75
2022-08-09T10:20:27.316Z,26.52
2022-08-09T10:23:36.874Z,26.73
2022-08-09T10:26:43.087Z,26.69
2022-08-09T10:30:56.774Z,26.59
2022-08-09T10:33:29.928Z,26.51
2022-08-09T10:36:35.431Z,26.59
2022-08-09T10:39:48.832Z,26.15
2022-08-09T10:42:53.142Z,26.29
2022-08-09T10:45:59.851Z,26.15
2022-08-09T10:49:42.357Z,26.12
2022-08-09T10:52:56.195Z,25.77
2022-08-09T10:56:23.057Z,25.92
2022-08-09T10:59:31.119Z,26.04
2022-08-09T11:03:15.111Z,26.15
2022-08-09T11:06:23.002Z,26.40
2022-08-09T11:09:47.846Z,26.53
2022-08-09T11:13:13.904Z,26.75
2022-08-09T11:16:38.280Z,26.70
2022-08-09T11:20:11.594Z,26.93
2022-08-09T11:23:30.230Z,27.07
2022-08-09T11:26:40.846Z,27.05
2022-08-09T11:30:04.873Z,27.07
2022-08-09T11:33:17.974Z,27.07
2022-08-09T11:36:30.318Z,27.28
2022-08-09T11:40:00.297Z,27.45
2022-08-09T11:43:03.807Z,27.75
2022-08-09T11:46:07.580Z,28.17
2022-08-09T11:49:10.021Z,28.39
2022-08-09T11:52:56.733Z,28.50
2022-08-09T11:55:53.175Z,28.36
2022-08-09T11:59:05.569Z,28.82
2022-08-09T12:02:34.458Z,29.13
2022-08-09T12:05:39.543Z,29.02
2022-08-09T12:08:47.261Z,28.70
2022-08-09T12:12:05.871Z,29.10
2022-08-09T12:15:50.151Z,28.85
2022-08-09T12:18:54.169Z,29.30
2022-08-09T12:22:01.796Z,29.64
2022-08-09T12:25:36.335Z,29.88
2022-08-09T12:29:00.216Z,30.00
2022-08-09T12:32:11.041Z,29.85
2022-08-09T12:35:19.425Z,29.89
2022-08-09T12:38:37.660Z,30.24
2022-08-09T12:41:41.006Z,30.64
2022-08-09T12:44:52.395Z,30.22
2022-08-09T12:47:57.008Z,30.28
2022-08-09T12:51:00.117Z,30.13
2022-08-09T12:54:08.596Z,29.62
2022-08-09T12:57:11.078Z,29.43
2022-08-09T13:00:18.490Z,29.44
2022-08-09T13:03:58.962Z,29.11
2022-08-09T13:06:51.383Z,29.46
2022-08-09T13:10:04.705Z,29.53
2022-08-09T13:13:11.222Z,29.33
2022-08-09T13:16:17.494Z,29.36
2022-08-09T13:20:08.484Z,29.55
2022-08-09T13:23:05.480Z,29.70
2022-08-09T13:26:37.177Z,29.92
2022-08-09T13:30:03.636Z,29.30
2022-08-09T13:33:51.667Z,28.46
2022-08-09T13:36:49.858Z,27.96
2022-08-09T13:41:46.856Z,27.74
2022-08-09T13:43:16.030Z,27.69
2022-08-09T13:47:16.826Z,27.57
2022-08-09T13:49:57.296Z,27.47
2022-08-09T13:53:03.112Z,27.51
2022-08-09T13:56:06.239Z,27.51
2022-08-09T13:59:14.580Z,27.58
2022-08-09T14:02:36.274Z,27.49
2022-08-09T14:05:57.065Z,27.48
2022-08-09T14:09:04.347Z,27.24
2022-08-09T14:12:15.558Z,27.30
2022-08-09T14:16:06.673Z,27.25
2022-08-09T14:18:45.203Z,27.39
2022-08-09T14:21:52.377Z,27.55
2022-08-09T14:25:03.096Z,27.63
2022-08-09T14:28:05.673Z,27.53
2022-08-09T14:31:08.240Z,27.27
2022-08-09T14:34:12.211Z,27.20
2022-08-09T14:37:14.423Z,27.31
2022-08-09T14:40:19.923Z,27.38
2022-08-09T14:43:47.088Z,27.07
2022-08-09T14:47:13.862Z,27.12
2022-08-09T14:50:20.510Z,27.32
2022-08-09T14:53:23.104Z,27.35
2022-08-09T14:56:26.830Z,27.36
2022-08-09T14:59:29.775Z,27.40
2022-08-09T15:02:33.463Z,27.50
2022-08-09T15:05:37.461Z,27.53
2022-08-09T15:08:40.074Z,27.50
2022-08-09T15:11:48.659Z,27.47
2022-08-09T15:14:52.510Z,27.42
2022-08-09T15:17:55.506Z,27.51
2022-08-09T15:22:00.717Z,27.61
2022-08-09T15:24:26.546Z,27.33
2022-08-09T15:27:54.845Z,27.25
2022-08-09T15:31:08.664Z,27.24
2022-08-09T15:34:33.473Z,27.32
2022-08-09T15:37:56.123Z,27.23
2022-08-09T15:41:00.141Z,27.21
2022-08-09T15:44:11.919Z,27.23
2022-08-09T15:47:23.575Z,26.85
2022-08-09T15:50:38.792Z,26.74
2022-08-09T15:54:03.984Z,26.83
2022-08-09T15:57:04.451Z,26.92
2022-08-09T16:00:24.221Z,26.92
2022-08-09T16:03:38.251Z,26.96
2022-08-09T16:06:44.480Z,27.07
2022-08-09T16:10:04.869Z,27.02
2022-08-09T16:13:18.464Z,27.09
2022-08-09T16:16:28.174Z,27.07
2022-08-09T16:19:36.720Z,27.02
2022-08-09T16:22:42.123Z,26.96
2022-08-09T16:25:49.867Z,26.82
2022-08-09T16:28:52.428Z,26.64
2022-08-09T16:32:18.960Z,26.41
2022-08-09T16:35:52.975Z,26.38
2022-08-09T16:38:43.351Z,26.38
2022-08-09T16:42:03.741Z,26.31
2022-08-09T16:45:08.053Z,26.21
2022-08-09T16:48:39.727Z,26.09
2022-08-09T16:51:32.788Z,25.97
2022-08-09T16:54:37.228Z,25.87
2022-08-09T16:58:09.935Z,25.83
2022-08-09T17:01:07.996Z,25.71
2022-08-09T17:04:11.189Z,25.71
2022-08-09T17:08:43.200Z,25.57
2022-08-09T17:10:53.679Z,25.36
2022-08-09T17:14:01.078Z,25.29
2022-08-09T17:17:26.178Z,25.11
2022-08-09T17:20:32.410Z,24.94
2022-08-09T17:24:28.148Z,24.74
2022-08-09T17:27:02.671Z,24.47
2022-08-09T17:30:17.521Z,24.30
2022-08-09T17:33:23.441Z,24.18
2022-08-09T17:36:26.126Z,24.05
2022-08-09T17:39:48.601Z,23.85
2022-08-09T17:42:55.514Z,23.66
2022-08-09T17:46:09.515Z,23.50
2022-08-09T17:49:12.117Z,23.34
2022-08-09T17:52:22.647Z,23.16
2022-08-09T17:55:24.876Z,23.02
2022-08-09T17:58:47.315Z,22.84
2022-08-09T18:02:07.149Z,22.68
2022-08-09T18:05:12.930Z,22.53
2022-08-09T18:08:16.129Z,22.39
2022-08-09T18:11:23.763Z,22.19
2022-08-09T18:14:26.424Z,22.05
2022-08-09T18:18:03.554Z,21.92
2022-08-09T18:20:55.301Z,21.83
2022-08-09T18:24:12.255Z,21.70
2022-08-09T18:27:49.082Z,21.55
2022-08-09T18:30:49.118Z,21.45
2022-08-09T18:33:53.752Z,21.40
2022-08-09T18:36:56.612Z,21.32
2022-08-09T18:39:59.045Z,21.22
2022-08-09T18:43:02.063Z,21.09
2022-08-09T18:46:47.765Z,20.99
2022-08-09T18:49:27.741Z,20.95
2022-08-09T18:52:35.985Z,20.95
2022-08-09T18:55:56.141Z,20.84
2022-08-09T18:59:04.153Z,20.79
2022-08-09T19:02:07.396Z,20.73
2022-08-09T19:05:20.066Z,20.67
2022-08-09T19:08:31.432Z,20.64
2022-08-09T19:11:37.617Z,20.58
2022-08-09T19:14:43.520Z,20.52
2022-08-09T19:18:34.087Z,20.48
2022-08-09T19:22:04.637Z,20.30
2022-08-09T19:25:42.815Z,20.31
2022-08-09T19:28:49.417Z,20.27
2022-08-09T19:31:52.480Z,20.25
2022-08-09T19:35:02.589Z,20.19
2022-08-09T19:38:05.638Z,20.10
2022-08-09T19:41:11.806Z,20.12
2022-08-09T19:44:35.688Z,20.02
2022-08-09T19:48:01.332Z,19.97
2022-08-09T19:51:06.008Z,19.91
2022-08-09T19:54:08.981Z,19.85
2022-08-09T19:57:12.121Z,19.78
2022-08-09T20:00:16.363Z,19.68
2022-08-09T20:04:09.924Z,19.57
2022-08-09T20:06:42.196Z,19.47
2022-08-09T20:09:47.656Z,19.38
2022-08-09T20:12:52.035Z,19.32
2022-08-09T20:16:33.083Z,19.24
2022-08-09T20:19:47.669Z,19.16
2022-08-09T20:22:44.597Z,19.09
2022-08-09T20:25:52.041Z,19.00
2022-08-09T20:28:55.697Z,18.93
2022-08-09T20:32:31.396Z,18.85
2022-08-09T20:35:21.643Z,18.66
2022-08-09T20:38:30.239Z,18.56
2022-08-09T20:41:49.245Z,18.43
2022-08-09T20:45:21.460Z,18.32
2022-08-09T20:48:15.801Z,18.22
2022-08-09T20:51:24.891Z,18.13
2022-08-09T20:54:28.871Z,18.03
2022-08-09T20:57:32.414Z,17.98
2022-08-09T21:00:35.555Z,17.86
2022-08-09T21:04:07.667Z,17.83
2022-08-09T21:07:12.194Z,17.72
2022-08-09T21:10:16.187Z,17.58
2022-08-09T21:13:18.341Z,17.47
2022-08-09T21:16:21.409Z,17.41
2022-08-09T21:20:17.758Z,17.24
2022-08-09T21:22:55.109Z,17.18
2022-08-09T21:25:59.704Z,17.11
2022-08-09T21:29:02.744Z,17.04
2022-08-09T21:32:15.376Z,17.00
2022-08-09T21:35:22.024Z,16.93
2022-08-09T21:38:31.115Z,16.85
2022-08-09T21:42:05.973Z,16.74
2022-08-09T21:44:56.816Z,16.64
2022-08-09T21:48:00.294Z,16.53
2022-08-09T21:51:02.434Z,16.56
2022-08-09T21:54:05.023Z,16.62
2022-08-09T21:57:07.209Z,16.57
2022-08-09T22:00:33.421Z,16.58
2022-08-09T22:03:48.231Z,16.51
2022-08-09T22:07:01.987Z,16.49
2022-08-09T22:10:08.644Z,16.53
2022-08-09T22:13:11.662Z,16.41
2022-08-09T22:16:13.843Z,16.38
2022-08-09T22:19:59.103Z,16.38
2022-08-09T22:22:39.720Z,16.36
2022-08-09T22:26:08.430Z,16.30
2022-08-09T22:29:07.394Z,16.24
2022-08-09T22:32:29.303Z,16.17
2022-08-09T22:36:01.247Z,16.18
2022-08-09T22:38:54.721Z,16.10
2022-08-09T22:41:56.887Z,16.04
2022-08-09T22:48:10.397Z,16.02
2022-08-09T22:48:34.788Z,15.97
2022-08-09T22:51:43.517Z,15.86
2022-08-09T22:54:52.259Z,15.74
2022-08-09T22:57:59.418Z,15.72
2022-08-09T23:01:03.405Z,15.66
2022-08-09T23:04:07.426Z,15.59
2022-08-09T23:08:21.434Z,15.50
2022-08-09T23:10:50.323Z,15.47
2022-08-09T23:13:53.556Z,15.47
2022-08-09T23:16:56.265Z,15.45
2022-08-09T23:20:06.920Z,15.42
2022-08-09T23:23:10.047Z,15.37
2022-08-09T23:26:12.221Z,15.38
2022-08-09T23:29:14.676Z,15.30
2022-08-09T23:32:16.842Z,15.23
2022-08-09T23:35:19.207Z,15.21
2022-08-09T23:38:22.129Z,15.16
2022-08-09T23:41:28.761Z,15.14
2022-08-09T23:44:31.654Z,15.04
2022-08-09T23:47:33.901Z,14.92
2022-08-09T23:50:36.171Z,14.92
2022-08-09T23:53:38.794Z,14.95
2022-08-09T23:56:54.525Z,14.88
